sensor_id;sensor_type;location;lat;lon;timestamp;pressure;altitude;pressure_sealevel;temperature;humidity
58467;BME280;44255;49.244;7.726;2023-02-13T04:30:37;100246.91;;;-5.14;72.67
58467;BME280;44255;49.244;7.726;2023-02-13T04:33:02;100246.00;;;-5.15;72.52
58467;BME280;44255;49.244;7.726;2023-02-13T04:35:28;100243.03;;;-5.29;73.03
58467;BME280;44255;49.244;7.726;2023-02-13T04:37:53;100236.88;;;-5.30;73.14
58467;BME280;44255;49.244;7.726;2023-02-13T04:40:18;100236.28;;;-5.18;72.99
58467;BME280;44255;49.244;7.726;2023-02-13T04:42:46;100241.47;;;-5.21;73.12
58467;BME280;44255;49.244;7.726;2023-02-13T04:45:11;100233.59;;;-5.21;72.76
58467;BME280;44255;49.244;7.726;2023-02-13T04:47:36;100238.56;;;-5.33;73.29
58467;BME280;44255;49.244;7.726;2023-02-13T04:50:01;100233.31;;;-5.32;73.25
58467;BME280;44255;49.244;7.726;2023-02-13T04:52:27;100240.34;;;-5.31;73.81
58467;BME280;44255;49.244;7.726;2023-02-13T04:54:52;100232.34;;;-5.35;73.90
58467;BME280;44255;49.244;7.726;2023-02-13T04:57:18;100241.22;;;-5.32;73.32
58467;BME280;44255;49.244;7.726;2023-02-13T04:59:43;100238.56;;;-5.32;71.78
58467;BME280;44255;49.244;7.726;2023-02-13T05:02:08;100235.81;;;-5.36;71.49
58467;BME280;44255;49.244;7.726;2023-02-13T05:04:33;100247.19;;;-5.37;70.91
58467;BME280;44255;49.244;7.726;2023-02-13T05:06:59;100250.66;;;-5.40;70.20
58467;BME280;44255;49.244;7.726;2023-02-13T05:09:24;100246.03;;;-5.49;70.25
58467;BME280;44255;49.244;7.726;2023-02-13T05:11:52;100247.00;;;-5.45;70.32
58467;BME280;44255;49.244;7.726;2023-02-13T05:14:18;100242.72;;;-5.41;69.41
58467;BME280;44255;49.244;7.726;2023-02-13T05:16:43;100242.84;;;-5.37;69.21
58467;BME280;44255;49.244;7.726;2023-02-13T05:19:08;100246.13;;;-5.46;69.70
58467;BME280;44255;49.244;7.726;2023-02-13T05:21:34;100246.13;;;-5.44;69.33
58467;BME280;44255;49.244;7.726;2023-02-13T05:24:17;100243.22;;;-5.55;69.86
58467;BME280;44255;49.244;7.726;2023-02-13T05:26:43;100237.88;;;-5.60;69.48
58467;BME280;44255;49.244;7.726;2023-02-13T05:29:09;100243.13;;;-5.60;69.89
58467;BME280;44255;49.244;7.726;2023-02-13T05:31:55;100232.00;;;-5.49;68.83
58467;BME280;44255;49.244;7.726;2023-02-13T05:34:22;100243.44;;;-5.47;68.07
58467;BME280;44255;49.244;7.726;2023-02-13T05:36:48;100232.84;;;-5.50;67.96
58467;BME280;44255;49.244;7.726;2023-02-13T05:39:13;100235.41;;;-5.53;67.79
58467;BME280;44255;49.244;7.726;2023-02-13T05:41:40;100238.88;;;-5.54;68.26
58467;BME280;44255;49.244;7.726;2023-02-13T05:44:05;100237.19;;;-5.52;67.32
58467;BME280;44255;49.244;7.726;2023-02-13T05:46:30;100231.88;;;-5.54;68.50
58467;BME280;44255;49.244;7.726;2023-02-13T05:48:56;100234.41;;;-5.57;68.24
58467;BME280;44255;49.244;7.726;2023-02-13T05:51:21;100237.88;;;-5.60;68.24
58467;BME280;44255;49.244;7.726;2023-02-13T05:53:46;100232.31;;;-5.70;68.61
58467;BME280;44255;49.244;7.726;2023-02-13T05:56:11;100242.19;;;-5.62;68.42
58467;BME280;44255;49.244;7.726;2023-02-13T05:58:37;100237.88;;;-5.60;67.80
58467;BME280;44255;49.244;7.726;2023-02-13T06:01:02;100249.22;;;-5.61;67.68
58467;BME280;44255;49.244;7.726;2023-02-13T06:03:28;100246.56;;;-5.61;67.42
58467;BME280;44255;49.244;7.726;2023-02-13T06:05:54;100244.78;;;-5.63;67.62
58467;BME280;44255;49.244;7.726;2023-02-13T06:08:21;100243.00;;;-5.64;67.16
58467;BME280;44255;49.244;7.726;2023-02-13T06:10:47;100246.28;;;-5.73;67.83
58467;BME280;44255;49.244;7.726;2023-02-13T06:13:12;100244.66;;;-5.68;68.26
58467;BME280;44255;49.244;7.726;2023-02-13T06:15:38;100252.59;;;-5.66;68.66
58467;BME280;44255;49.244;7.726;2023-02-13T06:18:04;100259.13;;;-5.82;67.41
58467;BME280;44255;49.244;7.726;2023-02-13T06:20:29;100262.66;;;-5.82;67.69
58467;BME280;44255;49.244;7.726;2023-02-13T06:22:54;100252.31;;;-5.76;66.61
58467;BME280;44255;49.244;7.726;2023-02-13T06:25:20;100255.84;;;-5.75;67.15
58467;BME280;44255;49.244;7.726;2023-02-13T06:27:45;100246.22;;;-5.75;66.79
58467;BME280;44255;49.244;7.726;2023-02-13T06:30:11;100255.00;;;-5.74;66.75
58467;BME280;44255;49.244;7.726;2023-02-13T06:32:36;100251.38;;;-5.78;65.85
58467;BME280;44255;49.244;7.726;2023-02-13T06:35:01;100254.94;;;-5.76;66.49
58467;BME280;44255;49.244;7.726;2023-02-13T06:37:27;100257.41;;;-5.82;66.29
58467;BME280;44255;49.244;7.726;2023-02-13T06:39:52;100262.75;;;-5.79;66.62
58467;BME280;44255;49.244;7.726;2023-02-13T06:42:17;100263.63;;;-5.78;66.36
58467;BME280;44255;49.244;7.726;2023-02-13T06:44:43;100257.34;;;-5.83;66.77
58467;BME280;44255;49.244;7.726;2023-02-13T06:47:08;100259.97;;;-5.85;67.57
58467;BME280;44255;49.244;7.726;2023-02-13T06:49:33;100262.66;;;-5.82;67.43
58467;BME280;44255;49.244;7.726;2023-02-13T06:51:59;100262.66;;;-5.82;66.32
58467;BME280;44255;49.244;7.726;2023-02-13T06:54:24;100259.34;;;-5.75;65.41
58467;BME280;44255;49.244;7.726;2023-02-13T06:56:49;100258.47;;;-5.75;65.60
58467;BME280;44255;49.244;7.726;2023-02-13T06:59:14;100267.22;;;-5.75;65.14
58467;BME280;44255;49.244;7.726;2023-02-13T07:01:39;100256.78;;;-5.73;65.23
58467;BME280;44255;49.244;7.726;2023-02-13T07:04:05;100262.97;;;-5.69;65.22
58467;BME280;44255;49.244;7.726;2023-02-13T07:06:30;100266.50;;;-5.69;65.87
58467;BME280;44255;49.244;7.726;2023-02-13T07:08:55;100261.31;;;-5.67;66.01
58467;BME280;44255;49.244;7.726;2023-02-13T07:11:23;100265.66;;;-5.68;66.42
58467;BME280;44255;49.244;7.726;2023-02-13T07:13:49;100263.19;;;-5.62;66.10
58467;BME280;44255;49.244;7.726;2023-02-13T07:16:14;100266.72;;;-5.61;65.39
58467;BME280;44255;49.244;7.726;2023-02-13T07:18:40;100274.59;;;-5.61;65.85
58467;BME280;44255;49.244;7.726;2023-02-13T07:21:06;100271.06;;;-5.62;65.81
58467;BME280;44255;49.244;7.726;2023-02-13T07:23:32;100275.59;;;-5.57;66.63
58467;BME280;44255;49.244;7.726;2023-02-13T07:25:58;100269.03;;;-5.40;65.92
58467;BME280;44255;49.244;7.726;2023-02-13T07:28:23;100271.75;;;-5.37;66.00
58467;BME280;44255;49.244;7.726;2023-02-13T07:30:48;100265.84;;;-5.26;65.56
58467;BME280;44255;49.244;7.726;2023-02-13T07:33:13;100265.84;;;-5.26;66.08
58467;BME280;44255;49.244;7.726;2023-02-13T07:35:38;100261.06;;;-5.09;66.39
58467;BME280;44255;49.244;7.726;2023-02-13T07:38:05;100269.78;;;-5.10;66.97
58467;BME280;44255;49.244;7.726;2023-02-13T07:40:31;100271.88;;;-4.97;66.03
58467;BME280;44255;49.244;7.726;2023-02-13T07:42:59;100265.72;;;-4.97;66.33
58467;BME280;44255;49.244;7.726;2023-02-13T07:45:24;100267.63;;;-4.92;66.18
58467;BME280;44255;49.244;7.726;2023-02-13T07:47:49;100272.22;;;-4.83;65.93
58467;BME280;44255;49.244;7.726;2023-02-13T07:50:15;100276.75;;;-4.76;65.88
58467;BME280;44255;49.244;7.726;2023-02-13T07:52:40;100272.81;;;-4.93;66.19
58467;BME280;44255;49.244;7.726;2023-02-13T07:55:05;100272.47;;;-5.09;66.17
58467;BME280;44255;49.244;7.726;2023-02-13T07:57:31;100271.97;;;-5.27;66.62
58467;BME280;44255;49.244;7.726;2023-02-13T07:59:57;100276.16;;;-5.01;66.58
58467;BME280;44255;49.244;7.726;2023-02-13T08:02:22;100266.72;;;-4.92;66.82
58467;BME280;44255;49.244;7.726;2023-02-13T08:04:47;100278.38;;;-4.82;67.07
58467;BME280;44255;49.244;7.726;2023-02-13T08:07:13;100271.47;;;-4.77;66.69
58467;BME280;44255;49.244;7.726;2023-02-13T08:09:38;100267.44;;;-4.99;67.09
58467;BME280;44255;49.244;7.726;2023-02-13T08:12:22;100273.13;;;-4.82;67.33
58467;BME280;44255;49.244;7.726;2023-02-13T08:14:47;100265.66;;;-4.64;66.37
58467;BME280;44255;49.244;7.726;2023-02-13T08:17:13;100265.66;;;-4.62;66.51
58467;BME280;44255;49.244;7.726;2023-02-13T08:19:38;100259.78;;;-4.52;66.28
58467;BME280;44255;49.244;7.726;2023-02-13T08:22:03;100263.56;;;-4.40;66.42
58467;BME280;44255;49.244;7.726;2023-02-13T08:24:29;100262.59;;;-4.44;66.99
58467;BME280;44255;49.244;7.726;2023-02-13T08:26:54;100266.19;;;-4.39;67.29
58467;BME280;44255;49.244;7.726;2023-02-13T08:29:20;100260.41;;;-4.22;67.35
58467;BME280;44255;49.244;7.726;2023-02-13T08:31:45;100267.13;;;-4.37;66.82
58467;BME280;44255;49.244;7.726;2023-02-13T08:34:10;100268.13;;;-4.70;68.71
58467;BME280;44255;49.244;7.726;2023-02-13T08:36:36;100267.81;;;-4.84;71.50
58467;BME280;44255;49.244;7.726;2023-02-13T08:39:01;100261.75;;;-4.80;71.77
58467;BME280;44255;49.244;7.726;2023-02-13T08:41:26;100260.16;;;-4.73;71.82
58467;BME280;44255;49.244;7.726;2023-02-13T08:43:52;100251.88;;;-4.10;69.55
58467;BME280;44255;49.244;7.726;2023-02-13T08:46:18;100241.97;;;-4.22;70.21
58467;BME280;44255;49.244;7.726;2023-02-13T08:48:43;100247.09;;;-4.30;70.66
58467;BME280;44255;49.244;7.726;2023-02-13T08:51:10;100238.75;;;-4.09;70.26
58467;BME280;44255;49.244;7.726;2023-02-13T08:53:37;100237.22;;;-4.40;72.84
58467;BME280;44255;49.244;7.726;2023-02-13T08:56:03;100243.97;;;-4.12;72.82
58467;BME280;44255;49.244;7.726;2023-02-13T08:58:29;100237.78;;;-4.12;73.43
58467;BME280;44255;49.244;7.726;2023-02-13T09:00:54;100236.28;;;-3.99;74.14
58467;BME280;44255;49.244;7.726;2023-02-13T09:03:19;100236.75;;;-3.76;74.52
58467;BME280;44255;49.244;7.726;2023-02-13T09:05:45;100237.94;;;-4.06;75.63
58467;BME280;44255;49.244;7.726;2023-02-13T09:08:11;100237.22;;;-3.51;73.86
58467;BME280;44255;49.244;7.726;2023-02-13T09:10:38;100227.69;;;-3.43;74.51
58467;BME280;44255;49.244;7.726;2023-02-13T09:13:04;100233.09;;;-3.37;74.19
58467;BME280;44255;49.244;7.726;2023-02-13T09:15:30;100231.53;;;-3.24;74.32
58467;BME280;44255;49.244;7.726;2023-02-13T09:17:56;100233.06;;;-3.38;75.90
58467;BME280;44255;49.244;7.726;2023-02-13T09:20:22;100235.00;;;-3.26;76.22
58467;BME280;44255;49.244;7.726;2023-02-13T09:22:47;100234.44;;;-3.07;76.16
58467;BME280;44255;49.244;7.726;2023-02-13T09:25:12;100237.03;;;-3.11;76.33
58467;BME280;44255;49.244;7.726;2023-02-13T09:27:37;100237.13;;;-3.05;76.26
58467;BME280;44255;49.244;7.726;2023-02-13T09:30:06;100240.88;;;-2.89;76.66
58467;BME280;44255;49.244;7.726;2023-02-13T09:32:34;100232.19;;;-2.85;75.62
58467;BME280;44255;49.244;7.726;2023-02-13T09:34:59;100237.50;;;-2.80;77.03
58467;BME280;44255;49.244;7.726;2023-02-13T09:37:25;100235.72;;;-2.81;77.16
58467;BME280;44255;49.244;7.726;2023-02-13T09:39:51;100231.63;;;-2.62;77.26
58467;BME280;44255;49.244;7.726;2023-02-13T09:42:20;100236.38;;;-2.38;77.43
58467;BME280;44255;49.244;7.726;2023-02-13T09:44:53;100236.53;;;-2.24;77.00
58467;BME280;44255;49.244;7.726;2023-02-13T09:47:31;100234.28;;;-1.96;75.37
58467;BME280;44255;49.244;7.726;2023-02-13T09:50:21;100230.88;;;-1.85;76.60
58467;BME280;44255;49.244;7.726;2023-02-13T09:52:49;100227.53;;;-1.69;75.58
58467;BME280;44255;49.244;7.726;2023-02-13T09:55:41;100231.19;;;-1.57;76.71
58467;BME280;44255;49.244;7.726;2023-02-13T10:01:02;100227.97;;;-1.25;76.63
58467;BME280;44255;49.244;7.726;2023-02-13T10:03:30;100230.69;;;-1.14;76.88
58467;BME280;44255;49.244;7.726;2023-02-13T10:06:17;100229.13;;;-0.89;76.74
58467;BME280;44255;49.244;7.726;2023-02-13T10:09:00;100231.94;;;-0.64;75.45
58467;BME280;44255;49.244;7.726;2023-02-13T10:11:59;100218.88;;;-0.35;73.36
58467;BME280;44255;49.244;7.726;2023-02-13T10:14:38;100223.34;;;-0.29;74.15
58467;BME280;44255;49.244;7.726;2023-02-13T10:17:35;100235.78;;;-0.12;75.02
58467;BME280;44255;49.244;7.726;2023-02-13T10:20:06;100226.97;;;-0.02;73.05
58467;BME280;44255;49.244;7.726;2023-02-13T10:23:11;100227.94;;;0.14;74.07
58467;BME280;44255;49.244;7.726;2023-02-13T10:25:47;100235.06;;;0.34;71.52
58467;BME280;44255;49.244;7.726;2023-02-13T10:28:25;100230.63;;;0.45;69.17
58467;BME280;44255;49.244;7.726;2023-02-13T10:30:55;100238.66;;;0.50;71.23
58467;BME280;44255;49.244;7.726;2023-02-13T10:33:28;100230.72;;;0.62;69.22
58467;BME280;44255;49.244;7.726;2023-02-13T10:36:02;100233.34;;;0.72;68.29
58467;BME280;44255;49.244;7.726;2023-02-13T10:38:32;100232.47;;;0.73;68.66
58467;BME280;44255;49.244;7.726;2023-02-13T10:44:16;100231.63;;;1.11;65.84
58467;BME280;44255;49.244;7.726;2023-02-13T11:01:08;100220.88;;;1.76;60.42
58467;BME280;44255;49.244;7.726;2023-02-13T11:03:38;100217.19;;;2.01;59.66
58467;BME280;44255;49.244;7.726;2023-02-13T11:06:07;100210.81;;;2.34;58.38
58467;BME280;44255;49.244;7.726;2023-02-13T11:08:38;100208.31;;;2.05;58.30
58467;BME280;44255;49.244;7.726;2023-02-13T11:11:31;100202.97;;;2.06;59.02
58467;BME280;44255;49.244;7.726;2023-02-13T11:17:06;100187.72;;;2.43;57.17
58467;BME280;44255;49.244;7.726;2023-02-13T11:19:39;100190.41;;;2.46;56.81
58467;BME280;44255;49.244;7.726;2023-02-13T11:22:13;100182.44;;;2.33;56.14
58467;BME280;44255;49.244;7.726;2023-02-13T11:24:49;100192.25;;;2.22;57.05
58467;BME280;44255;49.244;7.726;2023-02-13T11:27:15;100189.53;;;2.33;56.98
58467;BME280;44255;49.244;7.726;2023-02-13T11:29:53;100188.41;;;2.73;55.51
58467;BME280;44255;49.244;7.726;2023-02-13T11:32:26;100189.25;;;2.79;55.48
58467;BME280;44255;49.244;7.726;2023-02-13T11:34:52;100183.91;;;2.81;55.48
58467;BME280;44255;49.244;7.726;2023-02-13T11:37:27;100184.66;;;2.95;55.59
58467;BME280;44255;49.244;7.726;2023-02-13T11:39:55;100189.16;;;2.90;55.64
58467;BME280;44255;49.244;7.726;2023-02-13T11:42:25;100184.69;;;2.92;55.70
58467;BME280;44255;49.244;7.726;2023-02-13T11:44:54;100184.19;;;3.42;54.97
58467;BME280;44255;49.244;7.726;2023-02-13T11:47:38;100181.44;;;3.50;54.01
58467;BME280;44255;49.244;7.726;2023-02-13T11:50:18;100173.28;;;3.65;53.12
58467;BME280;44255;49.244;7.726;2023-02-13T11:55:36;100168.06;;;4.25;52.74
58467;BME280;44255;49.244;7.726;2023-02-13T12:00:41;100168.41;;;4.03;53.81
58467;BME280;44255;49.244;7.726;2023-02-13T12:03:30;100162.84;;;4.19;52.56
58467;BME280;44255;49.244;7.726;2023-02-13T12:08:35;100169.03;;;4.21;51.88
58467;BME280;44255;49.244;7.726;2023-02-13T12:13:44;100161.78;;;4.29;52.22
58467;BME280;44255;49.244;7.726;2023-02-13T12:16:17;100170.28;;;3.92;52.29
58467;BME280;44255;49.244;7.726;2023-02-13T12:18:48;100166.81;;;4.51;51.94
58467;BME280;44255;49.244;7.726;2023-02-13T12:26:43;100160.34;;;4.64;49.97
58467;BME280;44255;49.244;7.726;2023-02-13T12:32:18;100166.22;;;5.37;48.54
58467;BME280;44255;49.244;7.726;2023-02-13T12:35:07;100164.41;;;5.37;48.73
58467;BME280;44255;49.244;7.726;2023-02-13T12:37:56;100151.41;;;6.07;47.02
58467;BME280;44255;49.244;7.726;2023-02-13T12:43:52;100139.53;;;10.91;37.38
58467;BME280;44255;49.244;7.726;2023-02-13T12:54:18;100128.03;;;13.86;32.25
58467;BME280;44255;49.244;7.726;2023-02-13T12:57:18;100125.16;;;15.15;30.17
58467;BME280;44255;49.244;7.726;2023-02-13T13:05:41;100126.13;;;14.21;30.79
58467;BME280;44255;49.244;7.726;2023-02-13T13:08:27;100130.72;;;14.67;30.51
58467;BME280;44255;49.244;7.726;2023-02-13T13:13:57;100125.72;;;15.80;28.73
58467;BME280;44255;49.244;7.726;2023-02-13T13:16:36;100115.59;;;15.96;28.39
58467;BME280;44255;49.244;7.726;2023-02-13T13:22:06;100112.16;;;19.05;25.02
58467;BME280;44255;49.244;7.726;2023-02-13T13:27:19;100114.97;;;18.19;25.30
58467;BME280;44255;49.244;7.726;2023-02-13T13:29:53;100114.84;;;18.45;24.70
58467;BME280;44255;49.244;7.726;2023-02-13T13:32:21;100109.00;;;20.14;22.68
58467;BME280;44255;49.244;7.726;2023-02-13T13:34:46;100108.66;;;19.62;23.14
58467;BME280;44255;49.244;7.726;2023-02-13T13:37:31;100105.56;;;18.83;24.24
58467;BME280;44255;49.244;7.726;2023-02-13T13:42:42;100107.41;;;17.60;25.09
58467;BME280;44255;49.244;7.726;2023-02-13T13:50:49;100114.56;;;14.96;27.95
58467;BME280;44255;49.244;7.726;2023-02-13T13:53:19;100105.41;;;15.85;27.21
58467;BME280;44255;49.244;7.726;2023-02-13T13:58:45;100104.75;;;18.59;24.24
58467;BME280;44255;49.244;7.726;2023-02-13T14:03:41;100110.41;;;17.16;26.07
58467;BME280;44255;49.244;7.726;2023-02-13T14:06:12;100107.31;;;17.98;25.05
58467;BME280;44255;49.244;7.726;2023-02-13T14:11:04;100100.03;;;18.36;24.82
58467;BME280;44255;49.244;7.726;2023-02-13T14:13:35;100101.53;;;20.28;22.35
58467;BME280;44255;49.244;7.726;2023-02-13T14:16:02;100098.22;;;21.94;20.90
58467;BME280;44255;49.244;7.726;2023-02-13T14:18:28;100101.78;;;19.90;22.85
58467;BME280;44255;49.244;7.726;2023-02-13T14:20:57;100107.50;;;19.42;22.83
58467;BME280;44255;49.244;7.726;2023-02-13T14:31:25;100098.63;;;19.26;23.26
58467;BME280;44255;49.244;7.726;2023-02-13T14:34:16;100080.88;;;20.23;22.53
58467;BME280;44255;49.244;7.726;2023-02-13T14:36:46;100094.25;;;17.91;24.03
58467;BME280;44255;49.244;7.726;2023-02-13T14:39:25;100084.16;;;18.66;24.04
58467;BME280;44255;49.244;7.726;2023-02-13T14:41:59;100093.84;;;18.70;23.37
58467;BME280;44255;49.244;7.726;2023-02-13T14:44:48;100100.81;;;16.84;25.64
58467;BME280;44255;49.244;7.726;2023-02-13T14:47:21;100101.38;;;17.16;25.09
58467;BME280;44255;49.244;7.726;2023-02-13T14:49:49;100097.13;;;17.89;24.43
58467;BME280;44255;49.244;7.726;2023-02-13T14:52:21;100088.56;;;16.77;25.90
58467;BME280;44255;49.244;7.726;2023-02-13T14:54:54;100101.03;;;15.25;27.40
58467;BME280;44255;49.244;7.726;2023-02-13T14:57:28;100102.56;;;15.14;27.54
58467;BME280;44255;49.244;7.726;2023-02-13T14:59:58;100104.78;;;14.30;28.55
58467;BME280;44255;49.244;7.726;2023-02-13T15:02:28;100099.44;;;14.13;29.12
58467;BME280;44255;49.244;7.726;2023-02-13T15:05:02;100102.06;;;14.14;29.39
58467;BME280;44255;49.244;7.726;2023-02-13T15:07:32;100095.78;;;14.14;28.93
58467;BME280;44255;49.244;7.726;2023-02-13T15:10:01;100090.91;;;15.57;27.43
58467;BME280;44255;49.244;7.726;2023-02-13T15:12:33;100092.38;;;15.18;28.06
58467;BME280;44255;49.244;7.726;2023-02-13T15:15:00;100095.06;;;13.60;29.91
58467;BME280;44255;49.244;7.726;2023-02-13T15:17:31;100090.88;;;13.88;29.21
58467;BME280;44255;49.244;7.726;2023-02-13T15:20:32;100091.22;;;12.06;31.88
58467;BME280;44255;49.244;7.726;2023-02-13T15:22:58;100091.00;;;12.11;31.46
58467;BME280;44255;49.244;7.726;2023-02-13T15:25:35;100084.50;;;13.90;29.66
58467;BME280;44255;49.244;7.726;2023-02-13T15:28:03;100089.44;;;14.45;28.85
58467;BME280;44255;49.244;7.726;2023-02-13T15:30:31;100092.72;;;13.54;29.74
58467;BME280;44255;49.244;7.726;2023-02-13T15:32:59;100082.47;;;14.09;29.08
58467;BME280;44255;49.244;7.726;2023-02-13T15:35:29;100093.19;;;13.29;29.97
58467;BME280;44255;49.244;7.726;2023-02-13T15:37:56;100103.72;;;13.00;30.40
58467;BME280;44255;49.244;7.726;2023-02-13T15:40:27;100105.00;;;11.81;31.90
58467;BME280;44255;49.244;7.726;2023-02-13T15:42:53;100100.25;;;10.85;33.19
58467;BME280;44255;49.244;7.726;2023-02-13T15:45:20;100107.44;;;10.19;34.74
58467;BME280;44255;49.244;7.726;2023-02-13T15:47:47;100101.03;;;9.76;35.84
58467;BME280;44255;49.244;7.726;2023-02-13T15:50:16;100102.72;;;9.05;37.05
58467;BME280;44255;49.244;7.726;2023-02-13T15:52:43;100098.59;;;8.68;38.16
58467;BME280;44255;49.244;7.726;2023-02-13T15:55:31;100097.59;;;8.98;37.31
58467;BME280;44255;49.244;7.726;2023-02-13T15:57:59;100098.34;;;8.49;38.47
58467;BME280;44255;49.244;7.726;2023-02-13T16:00:26;100094.38;;;8.61;37.92
58467;BME280;44255;49.244;7.726;2023-02-13T16:02:54;100098.88;;;8.32;38.20
58467;BME280;44255;49.244;7.726;2023-02-13T16:05:20;100097.03;;;8.05;39.35
58467;BME280;44255;49.244;7.726;2023-02-13T16:07:50;100101.47;;;8.06;39.22
58467;BME280;44255;49.244;7.726;2023-02-13T16:10:28;100105.78;;;7.82;39.74
58467;BME280;44255;49.244;7.726;2023-02-13T16:13:05;100102.44;;;7.44;40.34
58467;BME280;44255;49.244;7.726;2023-02-13T16:15:33;100103.59;;;7.67;40.20
58467;BME280;44255;49.244;7.726;2023-02-13T16:18:00;100107.03;;;7.70;39.97
58467;BME280;44255;49.244;7.726;2023-02-13T16:20:29;100103.47;;;7.38;40.63
58467;BME280;44255;49.244;7.726;2023-02-13T16:23:01;100107.16;;;7.35;40.90
58467;BME280;44255;49.244;7.726;2023-02-13T16:25:32;100108.72;;;7.11;41.04
58467;BME280;44255;49.244;7.726;2023-02-13T16:28:00;100117.28;;;6.91;42.21
58467;BME280;44255;49.244;7.726;2023-02-13T16:30:35;100112.75;;;6.58;42.67
58467;BME280;44255;49.244;7.726;2023-02-13T16:38:47;100111.31;;;5.64;45.28
58467;BME280;44255;49.244;7.726;2023-02-13T16:48:43;100117.28;;;5.32;46.07
58467;BME280;44255;49.244;7.726;2023-02-13T16:51:08;100123.13;;;5.07;47.24
58467;BME280;44255;49.244;7.726;2023-02-13T16:53:34;100129.50;;;4.98;47.58
58467;BME280;44255;49.244;7.726;2023-02-13T16:56:00;100126.84;;;4.97;47.29
58467;BME280;44255;49.244;7.726;2023-02-13T16:58:27;100127.97;;;4.83;47.45
58467;BME280;44255;49.244;7.726;2023-02-13T17:00:53;100130.06;;;4.65;47.84
58467;BME280;44255;49.244;7.726;2023-02-13T17:03:18;100134.66;;;4.59;48.00
58467;BME280;44255;49.244;7.726;2023-02-13T17:05:43;100139.84;;;4.08;49.27
58467;BME280;44255;49.244;7.726;2023-02-13T17:08:09;100135.38;;;4.12;48.66
58467;BME280;44255;49.244;7.726;2023-02-13T17:10:36;100139.00;;;4.06;48.75
58467;BME280;44255;49.244;7.726;2023-02-13T17:15:33;100147.59;;;3.57;49.92
58467;BME280;44255;49.244;7.726;2023-02-13T17:17:58;100145.78;;;3.60;49.43
58467;BME280;44255;49.244;7.726;2023-02-13T17:20:29;100146.88;;;3.44;50.31
58467;BME280;44255;49.244;7.726;2023-02-13T17:23:00;100146.88;;;3.42;49.87
58467;BME280;44255;49.244;7.726;2023-02-13T17:25:30;100152.34;;;3.33;50.24
58467;BME280;44255;49.244;7.726;2023-02-13T17:27:58;100156.22;;;3.01;51.17
58467;BME280;44255;49.244;7.726;2023-02-13T17:30:29;100155.31;;;3.00;51.41
58467;BME280;44255;49.244;7.726;2023-02-13T17:33:06;100153.75;;;2.76;51.87
58467;BME280;44255;49.244;7.726;2023-02-13T17:35:34;100154.66;;;2.76;51.75
58467;BME280;44255;49.244;7.726;2023-02-13T17:38:00;100152.94;;;2.72;51.70
58467;BME280;44255;49.244;7.726;2023-02-13T17:40:25;100165.34;;;2.72;51.85
58467;BME280;44255;49.244;7.726;2023-02-13T17:42:54;100148.56;;;2.63;51.19
58467;BME280;44255;49.244;7.726;2023-02-13T17:45:22;100153.03;;;2.61;51.62
58467;BME280;44255;49.244;7.726;2023-02-13T17:47:48;100158.44;;;2.47;51.66
58467;BME280;44255;49.244;7.726;2023-02-13T17:50:14;100157.56;;;2.47;51.82
58467;BME280;44255;49.244;7.726;2023-02-13T17:52:41;100157.59;;;2.34;52.78
58467;BME280;44255;49.244;7.726;2023-02-13T17:55:15;100152.34;;;2.25;52.07
58467;BME280;44255;49.244;7.726;2023-02-13T17:57:40;100147.97;;;2.15;52.13
58467;BME280;44255;49.244;7.726;2023-02-13T18:00:06;100153.38;;;2.02;52.12
58467;BME280;44255;49.244;7.726;2023-02-13T18:02:32;100151.69;;;1.84;53.05
58467;BME280;44255;49.244;7.726;2023-02-13T18:04:58;100141.13;;;1.76;53.37
58467;BME280;44255;49.244;7.726;2023-02-13T18:07:23;100154.44;;;1.67;53.31
58467;BME280;44255;49.244;7.726;2023-02-13T18:09:49;100149.13;;;1.64;53.12
58467;BME280;44255;49.244;7.726;2023-02-13T18:12:20;100153.66;;;1.35;53.68
58467;BME280;44255;49.244;7.726;2023-02-13T18:14:45;100151.00;;;1.43;53.93
58467;BME280;44255;49.244;7.726;2023-02-13T18:17:11;100159.84;;;1.33;54.38
58467;BME280;44255;49.244;7.726;2023-02-13T18:19:36;100157.22;;;1.28;54.26
58467;BME280;44255;49.244;7.726;2023-02-13T18:22:03;100158.97;;;1.31;53.70
58467;BME280;44255;49.244;7.726;2023-02-13T18:24:29;100161.69;;;1.17;54.03
58467;BME280;44255;49.244;7.726;2023-02-13T18:26:55;100149.28;;;1.13;53.88
58467;BME280;44255;49.244;7.726;2023-02-13T18:29:21;100148.41;;;1.04;54.33
58467;BME280;44255;49.244;7.726;2023-02-13T18:31:46;100149.31;;;0.89;54.25
58467;BME280;44255;49.244;7.726;2023-02-13T18:34:11;100154.63;;;0.89;54.28
58467;BME280;44255;49.244;7.726;2023-02-13T18:36:36;100149.31;;;0.99;54.35
58467;BME280;44255;49.244;7.726;2023-02-13T18:39:02;100157.28;;;0.89;54.32
58467;BME280;44255;49.244;7.726;2023-02-13T18:41:27;100153.75;;;0.76;54.51
58467;BME280;44255;49.244;7.726;2023-02-13T18:43:55;100160.84;;;0.63;55.29
58467;BME280;44255;49.244;7.726;2023-02-13T18:46:21;100161.72;;;0.59;54.74
58467;BME280;44255;49.244;7.726;2023-02-13T18:48:47;100159.03;;;0.47;55.45
58467;BME280;44255;49.244;7.726;2023-02-13T18:51:12;100158.13;;;0.38;55.38
58467;BME280;44255;49.244;7.726;2023-02-13T18:53:38;100159.88;;;0.33;55.73
58467;BME280;44255;49.244;7.726;2023-02-13T18:56:05;100163.44;;;0.29;55.46
58467;BME280;44255;49.244;7.726;2023-02-13T18:58:31;100166.97;;;0.28;55.73
58467;BME280;44255;49.244;7.726;2023-02-13T19:01:03;100162.53;;;0.25;55.79
58467;BME280;44255;49.244;7.726;2023-02-13T19:03:29;100166.03;;;0.20;55.74
58467;BME280;44255;49.244;7.726;2023-02-13T19:05:54;100164.25;;;-0.01;55.60
58467;BME280;44255;49.244;7.726;2023-02-13T19:08:21;100166.88;;;0.03;55.73
58467;BME280;44255;49.244;7.726;2023-02-13T19:10:46;100173.97;;;-0.00;56.18
58467;BME280;44255;49.244;7.726;2023-02-13T19:13:11;100171.31;;;-0.04;56.46
58467;BME280;44255;49.244;7.726;2023-02-13T19:15:36;100170.41;;;-0.10;56.05
58467;BME280;44255;49.244;7.726;2023-02-13T19:18:02;100169.53;;;-0.03;55.80
58467;BME280;44255;49.244;7.726;2023-02-13T19:20:27;100173.03;;;-0.15;56.29